Time;durP1;ratioP1;P1;durP2;ratioP2;P2;SDS_P1;SDS_P2;PMS_P1;PMS_P2;Temp;Humidity;BMP_temperature;BMP_pressure;BME280_temperature;BME280_humidity;BME280_pressure;Samples;Min_cycle;Max_cycle;Signal;HPM_P1;HPM_P2
2022/08/03 00:01:36;;;;;;;18.62;11.18;;;;;;;;;;4219904;33;20121;-68
2022/08/03 00:33:47;;;;;;;17.45;11.23;;;;;;;;;;4623423;28;20120;-63
2022/08/03 00:36:13;;;;;;;18.00;11.23;;;;;;;;;;4222751;33;20532;-64
2022/08/03 00:38:39;;;;;;;16.08;10.18;;;;;;;;;;4216400;33;20132;-65
2022/08/03 00:41:05;;;;;;;17.67;9.68;;;;;;;;;;4216501;34;20117;-65
2022/08/03 00:43:31;;;;;;;16.08;10.00;;;;;;;;;;4225226;33;20563;-66
2022/08/03 00:45:57;;;;;;;18.10;10.35;;;;;;;;;;4246767;33;20117;-66
2022/08/03 00:48:24;;;;;;;16.40;9.90;;;;;;;;;;4247010;33;20093;-72
2022/08/03 00:50:50;;;;;;;12.82;9.38;;;;;;;;;;4245264;33;20188;-72
2022/08/03 00:53:16;;;;;;;15.88;10.07;;;;;;;;;;4245547;33;20505;-65
2022/08/03 00:55:43;;;;;;;17.00;9.95;;;;;;;;;;4245353;33;20116;-65
2022/08/03 00:58:10;;;;;;;15.10;9.75;;;;;;;;;;4246615;33;20121;-65
2022/08/03 01:00:40;;;;;;;13.07;9.60;;;;;;;;;;4245243;33;20089;-65
2022/08/03 01:03:08;;;;;;;13.75;8.73;;;;;;;;;;4246659;33;20139;-65
2022/08/03 01:05:49;;;;;;;17.48;9.68;;;;;;;;;;4246628;33;20126;-65
2022/08/03 01:08:23;;;;;;;13.73;9.07;;;;;;;;;;4245402;33;20135;-65
2022/08/03 01:10:56;;;;;;;19.60;9.43;;;;;;;;;;4231279;33;20228;-65
2022/08/03 01:13:24;;;;;;;13.75;8.75;;;;;;;;;;4231043;33;20442;-65
2022/08/03 01:15:57;;;;;;;13.13;8.70;;;;;;;;;;4232441;33;20112;-63
2022/08/03 01:18:44;;;;;;;11.55;8.40;;;;;;;;;;4232501;33;20128;-63
2022/08/03 01:21:15;;;;;;;12.93;9.40;;;;;;;;;;4230886;33;20546;-62
2022/08/03 01:23:57;;;;;;;17.73;9.35;;;;;;;;;;4230024;33;20207;-62
2022/08/03 01:26:47;;;;;;;11.90;8.55;;;;;;;;;;4230137;33;20513;-62
2022/08/03 01:29:31;;;;;;;14.75;8.80;;;;;;;;;;4230321;33;20116;-62
2022/08/03 01:32:04;;;;;;;16.37;9.07;;;;;;;;;;4232144;33;20533;-64
2022/08/03 01:34:35;;;;;;;11.57;8.25;;;;;;;;;;4231448;33;20129;-63
2022/08/03 01:37:05;;;;;;;15.60;10.15;;;;;;;;;;4246505;33;20085;-64
2022/08/03 01:39:32;;;;;;;11.68;8.65;;;;;;;;;;4246233;33;20120;-64
2022/08/03 01:42:04;;;;;;;16.75;8.70;;;;;;;;;;4244943;33;20461;-64
2022/08/03 01:44:36;;;;;;;12.30;7.75;;;;;;;;;;4246216;33;20136;-63
2022/08/03 01:47:03;;;;;;;12.75;8.00;;;;;;;;;;4244929;33;20100;-64
2022/08/03 01:49:31;;;;;;;18.12;8.55;;;;;;;;;;4244991;33;20444;-64
2022/08/03 01:51:58;;;;;;;14.40;8.77;;;;;;;;;;4244742;33;20109;-64
2022/08/03 01:54:25;;;;;;;16.08;9.00;;;;;;;;;;4244791;33;20132;-64
2022/08/03 01:56:51;;;;;;;11.35;8.10;;;;;;;;;;4244644;33;20085;-64
2022/08/03 01:59:18;;;;;;;19.65;8.35;;;;;;;;;;4244829;33;20167;-65
2022/08/03 02:01:45;;;;;;;12.98;8.15;;;;;;;;;;4244517;33;20192;-64
2022/08/03 02:04:11;;;;;;;14.27;8.90;;;;;;;;;;4246087;33;20102;-66
2022/08/03 02:06:38;;;;;;;14.43;9.25;;;;;;;;;;4256419;33;20160;-66
2022/08/03 02:09:05;;;;;;;14.38;8.43;;;;;;;;;;4245884;33;20211;-66
2022/08/03 02:11:33;;;;;;;20.62;9.00;;;;;;;;;;4245923;33;20105;-66
2022/08/03 02:14:00;;;;;;;18.05;10.45;;;;;;;;;;4244645;33;20127;-66
2022/08/03 02:16:27;;;;;;;19.83;9.30;;;;;;;;;;4244355;33;20125;-66
2022/08/03 02:18:53;;;;;;;16.12;9.88;;;;;;;;;;4244577;33;20095;-66
2022/08/03 02:21:19;;;;;;;16.73;8.43;;;;;;;;;;4245787;33;20151;-66
2022/08/03 02:23:45;;;;;;;18.77;8.73;;;;;;;;;;4244323;33;20518;-66
2022/08/03 02:26:14;;;;;;;18.80;8.45;;;;;;;;;;4245723;33;20088;-66
2022/08/03 02:28:42;;;;;;;19.67;8.80;;;;;;;;;;4244436;33;20123;-66
2022/08/03 02:31:14;;;;;;;29.90;9.95;;;;;;;;;;4244461;33;20188;-66
2022/08/03 02:33:42;;;;;;;25.20;9.65;;;;;;;;;;4244338;33;20116;-66
2022/08/03 02:36:10;;;;;;;30.55;9.48;;;;;;;;;;4247312;33;20464;-66
2022/08/03 02:38:40;;;;;;;28.60;10.18;;;;;;;;;;4246500;33;20123;-65
2022/08/03 02:41:10;;;;;;;18.87;9.40;;;;;;;;;;4246443;33;20124;-66
2022/08/03 02:43:37;;;;;;;15.70;9.45;;;;;;;;;;4246590;33;20129;-66
2022/08/03 02:46:03;;;;;;;26.62;9.38;;;;;;;;;;4246558;33;20650;-66
2022/08/03 02:48:31;;;;;;;17.45;8.98;;;;;;;;;;4247003;33;20128;-66
2022/08/03 02:50:59;;;;;;;21.42;8.55;;;;;;;;;;4246303;33;20203;-67
2022/08/03 02:53:25;;;;;;;21.50;9.63;;;;;;;;;;4246613;33;20108;-67
2022/08/03 02:55:52;;;;;;;20.85;8.98;;;;;;;;;;4246458;33;20123;-66
2022/08/03 02:58:22;;;;;;;24.95;9.02;;;;;;;;;;4246319;33;20108;-66
2022/08/03 03:00:50;;;;;;;22.65;9.13;;;;;;;;;;4246499;33;20127;-66
2022/08/03 03:03:16;;;;;;;16.92;9.65;;;;;;;;;;4234588;33;20113;-66
2022/08/03 03:05:44;;;;;;;20.65;9.73;;;;;;;;;;4245335;33;20210;-66
2022/08/03 03:08:12;;;;;;;31.12;9.60;;;;;;;;;;4242546;33;20440;-65
2022/08/03 03:10:39;;;;;;;28.58;9.95;;;;;;;;;;4246132;33;20212;-65
2022/08/03 03:13:05;;;;;;;18.58;10.30;;;;;;;;;;4244667;33;20211;-67
2022/08/03 03:15:34;;;;;;;16.30;9.00;;;;;;;;;;4233349;33;20128;-65
2022/08/03 03:18:00;;;;;;;15.50;9.30;;;;;;;;;;4247255;33;20081;-65
2022/08/03 03:20:27;;;;;;;17.90;9.38;;;;;;;;;;4245757;33;20105;-66
2022/08/03 03:22:54;;;;;;;16.50;8.38;;;;;;;;;;4245871;33;20551;-66
2022/08/03 03:25:20;;;;;;;20.05;8.90;;;;;;;;;;4245966;33;20515;-65
2022/08/03 03:27:47;;;;;;;15.98;8.75;;;;;;;;;;4247713;33;20158;-64
2022/08/03 03:30:13;;;;;;;21.15;8.85;;;;;;;;;;4246543;33;20096;-65
2022/08/03 03:32:40;;;;;;;14.20;8.65;;;;;;;;;;4246835;33;20116;-64
2022/08/03 03:35:07;;;;;;;15.73;8.40;;;;;;;;;;4247394;33;20115;-65
2022/08/03 03:37:33;;;;;;;14.43;8.77;;;;;;;;;;4269958;33;20128;-64
2022/08/03 03:39:59;;;;;;;13.82;8.93;;;;;;;;;;4261422;33;20121;-65
2022/08/03 03:42:25;;;;;;;15.93;9.00;;;;;;;;;;4260130;33;20120;-65
2022/08/03 03:44:51;;;;;;;22.48;9.18;;;;;;;;;;4259827;33;20134;-65
2022/08/03 03:47:17;;;;;;;21.75;9.73;;;;;;;;;;4261117;33;20124;-65
2022/08/03 03:49:43;;;;;;;18.52;9.82;;;;;;;;;;4253400;33;20148;-66
2022/08/03 03:52:10;;;;;;;20.77;11.02;;;;;;;;;;4245354;33;20583;-65
2022/08/03 03:54:43;;;;;;;31.52;10.52;;;;;;;;;;4257718;33;20144;-65
2022/08/03 03:57:10;;;;;;;22.87;9.85;;;;;;;;;;4245862;33;20160;-64
2022/08/03 03:59:42;;;;;;;26.02;12.32;;;;;;;;;;4246227;33;20107;-64
2022/08/03 04:02:09;;;;;;;25.88;14.52;;;;;;;;;;4245968;33;20112;-65
2022/08/03 04:12:58;;;;;;;30.90;14.63;;;;;;;;;;4245708;33;20120;-65
2022/08/03 04:15:26;;;;;;;22.87;13.27;;;;;;;;;;4245459;33;20551;-65
2022/08/03 04:17:52;;;;;;;33.03;13.05;;;;;;;;;;4246854;33;20211;-65
2022/08/03 04:20:19;;;;;;;30.23;9.73;;;;;;;;;;4245572;33;20112;-64
2022/08/03 04:22:47;;;;;;;21.42;8.75;;;;;;;;;;4246352;33;20124;-65
2022/08/03 04:25:17;;;;;;;15.98;8.48;;;;;;;;;;4244724;33;20120;-65
2022/08/03 04:27:43;;;;;;;21.45;8.88;;;;;;;;;;4245227;33;20104;-64
2022/08/03 04:30:10;;;;;;;17.92;7.35;;;;;;;;;;4256015;33;20108;-65
2022/08/03 04:32:37;;;;;;;17.50;7.90;;;;;;;;;;4245240;33;20613;-65
2022/08/03 04:35:04;;;;;;;15.95;7.87;;;;;;;;;;4246853;33;20501;-65
2022/08/03 04:37:44;;;;;;;15.32;7.90;;;;;;;;;;4259468;33;20128;-65
2022/08/03 04:40:18;;;;;;;16.35;6.55;;;;;;;;;;4259790;33;20122;-65
2022/08/03 04:42:44;;;;;;;11.75;7.30;;;;;;;;;;4247686;33;20107;-65
2022/08/03 04:45:14;;;;;;;13.02;6.03;;;;;;;;;;4259506;33;20127;-67
2022/08/03 04:47:40;;;;;;;9.07;5.47;;;;;;;;;;4259389;33;20600;-66
2022/08/03 04:50:06;;;;;;;8.15;5.15;;;;;;;;;;4259521;33;20111;-63
2022/08/03 04:52:33;;;;;;;15.48;5.80;;;;;;;;;;4259304;33;20115;-62
2022/08/03 04:54:59;;;;;;;7.32;5.15;;;;;;;;;;4260800;33;20488;-63
2022/08/03 04:57:25;;;;;;;12.05;5.55;;;;;;;;;;4260006;33;20114;-63
2022/08/03 04:59:55;;;;;;;7.72;4.85;;;;;;;;;;4260860;33;20128;-63
2022/08/03 05:02:21;;;;;;;10.00;5.93;;;;;;;;;;4260782;33;20537;-62
2022/08/03 05:04:48;;;;;;;8.85;6.22;;;;;;;;;;4260824;33;20116;-62
2022/08/03 05:07:15;;;;;;;10.43;6.97;;;;;;;;;;4260682;33;20113;-65
2022/08/03 05:09:41;;;;;;;15.68;7.35;;;;;;;;;;4260872;33;20108;-63
2022/08/03 05:12:07;;;;;;;12.57;6.68;;;;;;;;;;4260526;33;20111;-65
2022/08/03 05:14:36;;;;;;;10.00;7.07;;;;;;;;;;4271263;33;20216;-63
2022/08/03 05:17:03;;;;;;;10.93;6.60;;;;;;;;;;4260636;33;20163;-63
2022/08/03 05:19:29;;;;;;;15.35;5.90;;;;;;;;;;4260408;33;20314;-62
2022/08/03 05:21:55;;;;;;;7.78;6.10;;;;;;;;;;4260587;33;20598;-64
2022/08/03 05:24:21;;;;;;;12.30;6.43;;;;;;;;;;4260541;33;20096;-63
2022/08/03 05:26:47;;;;;;;9.85;5.80;;;;;;;;;;4260567;33;20493;-63
2022/08/03 05:29:13;;;;;;;11.07;6.18;;;;;;;;;;4259018;33;20330;-64
2022/08/03 05:31:39;;;;;;;10.70;5.93;;;;;;;;;;4260354;33;20136;-64
2022/08/03 05:34:05;;;;;;;7.78;5.28;;;;;;;;;;4271305;33;20188;-65
2022/08/03 05:36:31;;;;;;;5.82;5.22;;;;;;;;;;4260387;33;20123;-65
2022/08/03 05:38:57;;;;;;;8.88;4.57;;;;;;;;;;4260663;33;20112;-65
2022/08/03 05:41:23;;;;;;;16.52;6.00;;;;;;;;;;4258712;33;20124;-65
2022/08/03 05:43:53;;;;;;;7.95;4.93;;;;;;;;;;4260406;33;20480;-63
2022/08/03 05:46:19;;;;;;;7.78;4.62;;;;;;;;;;4260489;33;20194;-64
2022/08/03 05:48:45;;;;;;;7.53;4.57;;;;;;;;;;4260351;33;20139;-64
2022/08/03 05:51:12;;;;;;;7.82;4.53;;;;;;;;;;4260424;33;20199;-65
2022/08/03 05:53:42;;;;;;;12.48;4.82;;;;;;;;;;4260439;33;20108;-63
2022/08/03 05:56:08;;;;;;;6.12;4.50;;;;;;;;;;4260117;33;20115;-64
2022/08/03 05:58:34;;;;;;;6.28;4.60;;;;;;;;;;4260154;33;20119;-64
2022/08/03 06:01:00;;;;;;;7.60;4.90;;;;;;;;;;4260373;33;20131;-67
2022/08/03 06:03:26;;;;;;;3.78;3.03;;;;;;;;;;4259851;33;20104;-65
2022/08/03 06:05:55;;;;;;;6.03;4.53;;;;;;;;;;4260105;33;20108;-66
2022/08/03 06:08:22;;;;;;;6.25;3.80;;;;;;;;;;4259069;33;20113;-65
2022/08/03 06:10:48;;;;;;;12.27;4.22;;;;;;;;;;4260827;33;20133;-64
2022/08/03 06:13:14;;;;;;;5.18;3.60;;;;;;;;;;4262408;33;20116;-67
2022/08/03 06:15:55;;;;;;;7.03;4.35;;;;;;;;;;4262371;33;20143;-64
2022/08/03 06:18:23;;;;;;;6.20;4.53;;;;;;;;;;4262434;33;20127;-64
2022/08/03 06:20:50;;;;;;;8.68;4.18;;;;;;;;;;4262167;33;20120;-63
2022/08/03 06:23:16;;;;;;;5.87;4.30;;;;;;;;;;4262060;33;20483;-62
2022/08/03 06:25:42;;;;;;;5.15;3.83;;;;;;;;;;4262008;33;20491;-63
2022/08/03 06:28:08;;;;;;;7.53;5.10;;;;;;;;;;4262038;33;20533;-64
2022/08/03 06:30:35;;;;;;;6.62;3.83;;;;;;;;;;4261937;33;20089;-64
2022/08/03 06:33:01;;;;;;;7.12;3.22;;;;;;;;;;4261987;33;20543;-63
2022/08/03 06:35:27;;;;;;;3.70;3.30;;;;;;;;;;4262123;33;20127;-64
2022/08/03 06:37:53;;;;;;;5.57;3.55;;;;;;;;;;4261879;33;20562;-63
2022/08/03 06:40:30;;;;;;;3.10;2.80;;;;;;;;;;4262173;33;20165;-63
2022/08/03 06:42:57;;;;;;;4.85;3.70;;;;;;;;;;4261906;33;20116;-63
2022/08/03 06:45:24;;;;;;;4.20;3.62;;;;;;;;;;4261819;33;20464;-63
2022/08/03 06:48:09;;;;;;;4.65;3.33;;;;;;;;;;4261939;33;20120;-62
2022/08/03 06:50:37;;;;;;;5.43;4.15;;;;;;;;;;4261856;33;20108;-62
2022/08/03 06:53:04;;;;;;;5.80;4.18;;;;;;;;;;4261864;33;20096;-63
2022/08/03 06:55:31;;;;;;;6.03;4.55;;;;;;;;;;4261833;33;20536;-65
2022/08/03 06:57:57;;;;;;;8.50;4.10;;;;;;;;;;4260586;33;20095;-65
2022/08/03 07:00:23;;;;;;;5.03;4.25;;;;;;;;;;4261844;33;20103;-65
2022/08/03 07:02:49;;;;;;;14.20;7.35;;;;;;;;;;4261740;33;20115;-64
2022/08/03 07:05:15;;;;;;;7.93;5.62;;;;;;;;;;4261791;33;20516;-63
2022/08/03 07:07:42;;;;;;;8.00;4.50;;;;;;;;;;4260259;33;20451;-64
2022/08/03 07:10:08;;;;;;;5.78;4.87;;;;;;;;;;4260281;33;20208;-63
2022/08/03 07:12:34;;;;;;;8.80;5.93;;;;;;;;;;4261595;33;20512;-65
2022/08/03 07:15:01;;;;;;;7.43;4.22;;;;;;;;;;4261640;33;20139;-64
2022/08/03 07:17:28;;;;;;;6.65;4.20;;;;;;;;;;4261513;33;20547;-61
2022/08/03 07:19:55;;;;;;;9.60;3.70;;;;;;;;;;4261286;33;20693;-63
2022/08/03 07:22:21;;;;;;;6.50;3.42;;;;;;;;;;4261554;33;20203;-64
2022/08/03 07:24:47;;;;;;;5.57;3.30;;;;;;;;;;4260168;33;20192;-61
2022/08/03 07:27:15;;;;;;;4.25;3.53;;;;;;;;;;4261679;33;20116;-64
2022/08/03 07:29:41;;;;;;;4.90;3.50;;;;;;;;;;4261771;33;20107;-63
2022/08/03 07:32:07;;;;;;;4.12;2.90;;;;;;;;;;4261408;33;20465;-63
2022/08/03 07:34:33;;;;;;;5.25;3.75;;;;;;;;;;4261795;33;20093;-62
2022/08/03 07:36:59;;;;;;;6.62;3.22;;;;;;;;;;4261296;33;20103;-66
2022/08/03 07:39:25;;;;;;;7.85;3.50;;;;;;;;;;4261596;33;20611;-65
2022/08/03 07:41:51;;;;;;;3.33;2.90;;;;;;;;;;4259977;33;20591;-65
2022/08/03 07:44:18;;;;;;;4.90;3.78;;;;;;;;;;4271743;33;20139;-65
2022/08/03 07:46:44;;;;;;;3.30;2.97;;;;;;;;;;4261373;33;20087;-64
2022/08/03 07:49:10;;;;;;;4.68;3.45;;;;;;;;;;4261409;33;20108;-65
2022/08/03 07:51:36;;;;;;;5.72;3.20;;;;;;;;;;4261448;33;20203;-65
2022/08/03 07:54:02;;;;;;;4.82;3.60;;;;;;;;;;4260076;33;20116;-65
2022/08/03 07:56:28;;;;;;;4.65;3.28;;;;;;;;;;4261310;33;20092;-64
2022/08/03 07:58:55;;;;;;;5.30;4.03;;;;;;;;;;4260171;33;20108;-64
2022/08/03 08:01:21;;;;;;;5.12;3.72;;;;;;;;;;4261348;33;20103;-65
2022/08/03 08:03:48;;;;;;;4.32;3.92;;;;;;;;;;4261547;33;20172;-61
2022/08/03 08:06:15;;;;;;;7.87;3.78;;;;;;;;;;4271735;33;20120;-60
2022/08/03 08:08:41;;;;;;;11.07;3.42;;;;;;;;;;4261094;33;20482;-61
2022/08/03 08:11:07;;;;;;;4.65;3.58;;;;;;;;;;4261165;33;20124;-60
2022/08/03 08:13:34;;;;;;;4.28;2.35;;;;;;;;;;4261150;33;20562;-64
2022/08/03 08:16:00;;;;;;;4.95;3.60;;;;;;;;;;4261223;33;20096;-60
2022/08/03 08:18:28;;;;;;;3.60;3.20;;;;;;;;;;4261144;33;20500;-61
2022/08/03 08:20:54;;;;;;;7.53;3.33;;;;;;;;;;4261209;33;20112;-62
2022/08/03 08:23:23;;;;;;;3.35;2.80;;;;;;;;;;4259642;33;20109;-62
2022/08/03 08:25:50;;;;;;;7.70;3.75;;;;;;;;;;4260042;33;20107;-63
2022/08/03 08:28:20;;;;;;;5.32;3.83;;;;;;;;;;4259799;33;20128;-63
2022/08/03 08:30:46;;;;;;;2.65;2.28;;;;;;;;;;4259732;33;20116;-63
2022/08/03 08:33:13;;;;;;;5.40;3.30;;;;;;;;;;4258559;33;20476;-62
2022/08/03 08:35:39;;;;;;;4.78;3.50;;;;;;;;;;4257983;33;20112;-62
2022/08/03 08:38:05;;;;;;;5.80;4.15;;;;;;;;;;4260664;33;20491;-62
2022/08/03 08:40:31;;;;;;;7.22;3.72;;;;;;;;;;4260884;33;20119;-62
2022/08/03 08:42:57;;;;;;;4.62;3.70;;;;;;;;;;4260790;33;20135;-62
2022/08/03 08:45:23;;;;;;;5.32;3.90;;;;;;;;;;4261158;33;20508;-62
2022/08/03 08:47:49;;;;;;;4.75;3.83;;;;;;;;;;4260924;33;20288;-62
2022/08/03 08:50:19;;;;;;;7.72;4.75;;;;;;;;;;4261155;33;20108;-62
2022/08/03 08:52:47;;;;;;;9.40;4.37;;;;;;;;;;4260799;33;20104;-63
2022/08/03 08:55:16;;;;;;;4.60;3.85;;;;;;;;;;4260841;33;20129;-62
2022/08/03 08:57:49;;;;;;;6.10;3.47;;;;;;;;;;4259202;33;20112;-62
2022/08/03 09:00:15;;;;;;;5.57;3.90;;;;;;;;;;4260794;33;20452;-63
2022/08/03 09:02:42;;;;;;;10.63;4.32;;;;;;;;;;4260680;33;20507;-62
2022/08/03 09:05:16;;;;;;;4.18;3.22;;;;;;;;;;4260666;33;20115;-60
2022/08/03 09:07:43;;;;;;;16.25;4.15;;;;;;;;;;4260677;33;20524;-62
2022/08/03 09:10:11;;;;;;;5.72;3.90;;;;;;;;;;4260767;33;20128;-62
2022/08/03 09:12:39;;;;;;;7.43;4.70;;;;;;;;;;4260513;33;20492;-62
2022/08/03 09:15:25;;;;;;;5.55;3.90;;;;;;;;;;4259268;33;20120;-62
2022/08/03 09:17:54;;;;;;;4.43;3.00;;;;;;;;;;4260289;33;20151;-63
2022/08/03 09:20:22;;;;;;;4.45;3.35;;;;;;;;;;4258996;33;20112;-63
2022/08/03 09:22:53;;;;;;;4.90;3.92;;;;;;;;;;4260449;33;20967;-62
2022/08/03 09:25:19;;;;;;;5.72;3.30;;;;;;;;;;4260766;33;20100;-61
2022/08/03 09:27:46;;;;;;;5.75;3.97;;;;;;;;;;4258961;33;20123;-62
2022/08/03 09:30:16;;;;;;;3.87;3.05;;;;;;;;;;4260394;33;20562;-61
2022/08/03 09:32:46;;;;;;;5.00;4.10;;;;;;;;;;4260668;33;20124;-62
2022/08/03 09:35:12;;;;;;;3.97;3.10;;;;;;;;;;4260614;33;20120;-63
2022/08/03 09:37:39;;;;;;;4.45;3.30;;;;;;;;;;4260269;33;20104;-63
2022/08/03 09:40:06;;;;;;;4.57;3.05;;;;;;;;;;4260410;33;20647;-62
2022/08/03 09:42:37;;;;;;;8.65;3.05;;;;;;;;;;4260316;33;20516;-61
2022/08/03 09:45:03;;;;;;;4.15;3.40;;;;;;;;;;4259884;33;20112;-62
2022/08/03 09:47:31;;;;;;;4.47;2.97;;;;;;;;;;4258845;33;20520;-61
2022/08/03 09:50:03;;;;;;;5.90;3.55;;;;;;;;;;4260593;33;20123;-62
2022/08/03 09:52:31;;;;;;;7.07;4.05;;;;;;;;;;4260304;33;20475;-61
2022/08/03 09:54:58;;;;;;;4.68;3.45;;;;;;;;;;4260360;33;20107;-62
2022/08/03 09:57:25;;;;;;;5.30;3.85;;;;;;;;;;4260305;33;20116;-62
2022/08/03 09:59:57;;;;;;;3.53;2.50;;;;;;;;;;4260296;33;20496;-65
2022/08/03 10:02:25;;;;;;;3.62;3.15;;;;;;;;;;4260084;33;20100;-63
2022/08/03 10:04:51;;;;;;;4.43;3.00;;;;;;;;;;4260068;33;20264;-63
2022/08/03 10:07:20;;;;;;;7.72;3.42;;;;;;;;;;4259986;33;20461;-62
2022/08/03 10:10:00;;;;;;;7.70;3.08;;;;;;;;;;4259998;33;20121;-64
2022/08/03 10:12:27;;;;;;;4.15;3.22;;;;;;;;;;4259919;33;20131;-62
2022/08/03 10:14:53;;;;;;;8.40;3.42;;;;;;;;;;4260222;33;20135;-60
2022/08/03 10:17:20;;;;;;;5.12;3.60;;;;;;;;;;4259917;33;20211;-60
2022/08/03 10:19:47;;;;;;;8.15;3.58;;;;;;;;;;4259794;33;20096;-62
2022/08/03 10:22:18;;;;;;;9.43;3.67;;;;;;;;;;4260050;33;20096;-63
2022/08/03 10:24:58;;;;;;;4.45;3.22;;;;;;;;;;4258367;33;20118;-62
2022/08/03 10:27:26;;;;;;;5.25;3.10;;;;;;;;;;4259873;33;20115;-63
2022/08/03 10:29:55;;;;;;;3.70;2.78;;;;;;;;;;4258573;33;20162;-62
2022/08/03 10:32:34;;;;;;;9.48;4.25;;;;;;;;;;4258225;33;20120;-62
2022/08/03 10:35:18;;;;;;;7.47;2.75;;;;;;;;;;4259833;33;20108;-64
2022/08/03 10:38:00;;;;;;;5.87;3.33;;;;;;;;;;4259448;33;20119;-65
2022/08/03 10:40:29;;;;;;;4.70;3.55;;;;;;;;;;4258218;33;20888;-60
2022/08/03 10:42:59;;;;;;;6.35;3.25;;;;;;;;;;4259859;33;20115;-65
2022/08/03 10:45:26;;;;;;;4.32;3.45;;;;;;;;;;4259622;33;20131;-64
2022/08/03 10:47:54;;;;;;;12.10;3.20;;;;;;;;;;4260008;33;20112;-65
2022/08/03 10:50:23;;;;;;;4.25;3.17;;;;;;;;;;4259482;33;20207;-64
2022/08/03 10:53:06;;;;;;;4.82;3.12;;;;;;;;;;4258080;33;20116;-65
2022/08/03 10:58:53;;;;;;;4.22;3.12;;;;;;;;;;4260420;33;20100;-65
2022/08/03 11:01:48;;;;;;;3.92;3.22;;;;;;;;;;4261836;33;20426;-66
2022/08/03 11:04:16;;;;;;;5.12;3.33;;;;;;;;;;4261812;33;20194;-63
2022/08/03 11:06:41;;;;;;;3.03;2.53;;;;;;;;;;4248517;33;20198;-61
2022/08/03 11:09:16;;;;;;;4.05;3.30;;;;;;;;;;4260436;33;20548;-62
2022/08/03 11:11:44;;;;;;;3.55;2.72;;;;;;;;;;4261711;33;20108;-62
2022/08/03 11:14:11;;;;;;;7.00;3.62;;;;;;;;;;4248432;33;20085;-62
2022/08/03 11:16:45;;;;;;;4.53;3.10;;;;;;;;;;4261621;33;20444;-64
2022/08/03 11:19:16;;;;;;;6.30;3.03;;;;;;;;;;4261854;33;20123;-65
2022/08/03 11:21:51;;;;;;;5.75;3.28;;;;;;;;;;4261574;33;20085;-64
2022/08/03 11:24:35;;;;;;;3.05;2.75;;;;;;;;;;4261453;33;20209;-64
2022/08/03 11:27:14;;;;;;;7.53;4.05;;;;;;;;;;4261531;33;20464;-64
2022/08/03 11:29:57;;;;;;;5.65;3.95;;;;;;;;;;4261529;33;20115;-63
2022/08/03 11:32:47;;;;;;;8.88;6.05;;;;;;;;;;4261453;33;20088;-63
2022/08/03 11:35:30;;;;;;;7.15;4.95;;;;;;;;;;4261453;33;20529;-62
2022/08/03 11:37:59;;;;;;;13.98;6.87;;;;;;;;;;4261477;33;20127;-61
2022/08/03 11:40:46;;;;;;;9.63;6.30;;;;;;;;;;4261367;33;20092;-61
2022/08/03 11:43:21;;;;;;;12.13;5.82;;;;;;;;;;4261314;33;20111;-61
2022/08/03 11:46:06;;;;;;;13.20;5.87;;;;;;;;;;4261394;33;20532;-60
2022/08/03 11:48:43;;;;;;;14.00;6.97;;;;;;;;;;4260009;33;20096;-62
2022/08/03 11:51:26;;;;;;;12.73;7.07;;;;;;;;;;4259937;33;20120;-62
2022/08/03 11:53:57;;;;;;;9.50;5.12;;;;;;;;;;4261454;33;20108;-62
2022/08/03 11:56:24;;;;;;;7.82;5.28;;;;;;;;;;4259782;33;20506;-59
2022/08/03 11:58:52;;;;;;;12.52;4.80;;;;;;;;;;4261187;33;20111;-59
2022/08/03 12:01:18;;;;;;;4.68;3.90;;;;;;;;;;4261266;33;20110;-65
2022/08/03 12:03:45;;;;;;;6.10;4.15;;;;;;;;;;4261183;33;20099;-65
2022/08/03 12:06:12;;;;;;;9.35;5.05;;;;;;;;;;4261319;33;20096;-64
2022/08/03 12:08:40;;;;;;;12.80;4.10;;;;;;;;;;4261268;33;20445;-65
2022/08/03 12:11:07;;;;;;;11.12;3.85;;;;;;;;;;4261136;33;20437;-64
2022/08/03 12:13:46;;;;;;;12.63;4.80;;;;;;;;;;4261091;33;20108;-63
2022/08/03 12:16:22;;;;;;;8.80;4.22;;;;;;;;;;4260026;33;20100;-64
2022/08/03 12:19:03;;;;;;;12.88;5.10;;;;;;;;;;4261205;33;20440;-65
2022/08/03 12:21:29;;;;;;;10.02;4.43;;;;;;;;;;4261035;33;20198;-65
2022/08/03 12:24:00;;;;;;;13.20;5.22;;;;;;;;;;4259763;33;20468;-64
2022/08/03 12:26:27;;;;;;;10.55;4.60;;;;;;;;;;4260851;33;20107;-66
2022/08/03 12:28:53;;;;;;;5.22;4.10;;;;;;;;;;4259965;33;20127;-65
2022/08/03 12:31:19;;;;;;;4.87;3.67;;;;;;;;;;4261073;33;20112;-65
2022/08/03 12:33:55;;;;;;;8.90;4.10;;;;;;;;;;4260938;33;20132;-64
2022/08/03 12:36:21;;;;;;;12.80;4.20;;;;;;;;;;4260725;33;20111;-64
2022/08/03 12:38:55;;;;;;;12.43;3.83;;;;;;;;;;4259632;33;20100;-64
2022/08/03 12:41:29;;;;;;;6.18;4.07;;;;;;;;;;4259567;33;20103;-64
2022/08/03 12:43:56;;;;;;;5.10;3.50;;;;;;;;;;4259885;33;20106;-64
2022/08/03 12:46:22;;;;;;;6.40;3.75;;;;;;;;;;4260831;33;20098;-65
2022/08/03 12:49:07;;;;;;;5.60;4.22;;;;;;;;;;4259437;33;20192;-65
2022/08/03 12:51:37;;;;;;;8.40;4.90;;;;;;;;;;4260723;33;20203;-65
2022/08/03 12:54:04;;;;;;;11.95;4.85;;;;;;;;;;4260781;33;20109;-65
2022/08/03 12:56:30;;;;;;;6.30;3.50;;;;;;;;;;4260680;33;20509;-64
2022/08/03 12:58:56;;;;;;;7.57;4.28;;;;;;;;;;4260872;33;20196;-64
2022/08/03 13:01:23;;;;;;;14.70;4.57;;;;;;;;;;4260939;33;20108;-65
2022/08/03 13:03:51;;;;;;;6.70;4.65;;;;;;;;;;4259522;33;20441;-64
2022/08/03 13:06:21;;;;;;;6.18;4.12;;;;;;;;;;4260766;33;20507;-64
2022/08/03 13:08:50;;;;;;;6.35;4.00;;;;;;;;;;4224510;33;20155;-64
2022/08/03 13:11:24;;;;;;;6.62;4.57;;;;;;;;;;4259252;33;20486;-61
2022/08/03 13:13:51;;;;;;;5.62;3.72;;;;;;;;;;4260915;33;20203;-63
2022/08/03 13:16:17;;;;;;;11.27;4.22;;;;;;;;;;4260567;33;20115;-62
2022/08/03 13:18:45;;;;;;;8.90;4.03;;;;;;;;;;4259789;33;20093;-63
2022/08/03 13:21:13;;;;;;;5.47;3.50;;;;;;;;;;4260562;33;20112;-63
2022/08/03 13:23:39;;;;;;;6.28;4.57;;;;;;;;;;4259351;33;20132;-64
2022/08/03 13:26:05;;;;;;;5.22;3.80;;;;;;;;;;4260466;33;20101;-64
2022/08/03 13:28:31;;;;;;;6.75;3.95;;;;;;;;;;4260438;33;20142;-63
2022/08/03 13:30:57;;;;;;;9.73;3.80;;;;;;;;;;4260424;33;20119;-63
2022/08/03 13:33:23;;;;;;;4.43;3.92;;;;;;;;;;4260734;33;20106;-64
2022/08/03 13:35:49;;;;;;;5.12;4.22;;;;;;;;;;4260483;33;20124;-63
2022/08/03 13:38:15;;;;;;;10.25;4.15;;;;;;;;;;4260541;33;20440;-65
2022/08/03 13:40:41;;;;;;;5.95;3.72;;;;;;;;;;4249040;33;20199;-64
2022/08/03 13:43:07;;;;;;;8.23;2.60;;;;;;;;;;4221782;33;20231;-70
2022/08/03 13:45:34;;;;;;;5.00;2.72;;;;;;;;;;4218901;33;20101;-71
2022/08/03 13:48:00;;;;;;;9.45;4.82;;;;;;;;;;4218969;33;20108;-71
2022/08/03 13:50:28;;;;;;;6.82;4.20;;;;;;;;;;4232156;33;20120;-71
2022/08/03 13:52:55;;;;;;;12.23;4.28;;;;;;;;;;4224077;33;20510;-62
2022/08/03 13:55:21;;;;;;;6.65;3.87;;;;;;;;;;4246314;33;20113;-62
2022/08/03 13:57:48;;;;;;;11.50;3.60;;;;;;;;;;4243991;33;20124;-62
2022/08/03 14:00:15;;;;;;;6.10;3.85;;;;;;;;;;4230917;33;20112;-64
2022/08/03 14:02:41;;;;;;;7.00;4.78;;;;;;;;;;4218791;33;20486;-63
2022/08/03 14:05:07;;;;;;;8.43;4.78;;;;;;;;;;4232459;33;20117;-61
2022/08/03 14:07:35;;;;;;;8.27;4.07;;;;;;;;;;4230768;33;20119;-69
2022/08/03 14:10:01;;;;;;;10.07;3.92;;;;;;;;;;4219274;33;20105;-69
2022/08/03 14:12:27;;;;;;;6.12;3.55;;;;;;;;;;4218806;33;20105;-67
2022/08/03 14:14:53;;;;;;;6.53;4.37;;;;;;;;;;4218820;33;20217;-69
2022/08/03 14:17:19;;;;;;;9.55;4.87;;;;;;;;;;4232238;33;20221;-69
2022/08/03 14:19:46;;;;;;;6.20;4.78;;;;;;;;;;4218706;33;20085;-68
2022/08/03 14:22:12;;;;;;;7.72;4.00;;;;;;;;;;4218792;33;20152;-68
2022/08/03 14:24:39;;;;;;;5.35;4.00;;;;;;;;;;4218472;33;20430;-69
2022/08/03 14:27:05;;;;;;;10.88;4.30;;;;;;;;;;4207419;33;20101;-69
2022/08/03 14:29:31;;;;;;;5.47;4.20;;;;;;;;;;4230253;33;20100;-72
2022/08/03 14:31:57;;;;;;;6.43;4.85;;;;;;;;;;4233572;33;20136;-72
2022/08/03 14:34:23;;;;;;;7.35;4.60;;;;;;;;;;4234225;33;20529;-70
2022/08/03 14:36:49;;;;;;;10.65;4.75;;;;;;;;;;4242077;33;20116;-70
2022/08/03 14:39:15;;;;;;;12.45;4.18;;;;;;;;;;4248299;33;20189;-71
2022/08/03 14:41:41;;;;;;;7.90;4.32;;;;;;;;;;4246522;33;20081;-70
2022/08/03 14:44:07;;;;;;;9.75;3.83;;;;;;;;;;4248015;33;20131;-69
2022/08/03 14:46:33;;;;;;;7.00;4.12;;;;;;;;;;4247766;33;20192;-71
2022/08/03 14:48:59;;;;;;;5.37;3.62;;;;;;;;;;4248010;33;20512;-72
2022/08/03 14:51:25;;;;;;;5.60;3.78;;;;;;;;;;4258082;33;20135;-69
2022/08/03 14:53:51;;;;;;;6.07;4.28;;;;;;;;;;4247910;33;20117;-70
2022/08/03 14:56:17;;;;;;;9.48;3.95;;;;;;;;;;4258154;33;20128;-70
2022/08/03 14:58:43;;;;;;;5.57;4.07;;;;;;;;;;4257219;33;20109;-70
2022/08/03 15:01:09;;;;;;;5.55;4.25;;;;;;;;;;4244223;33;20199;-72
2022/08/03 15:03:35;;;;;;;6.50;3.95;;;;;;;;;;4245572;33;20139;-69
2022/08/03 15:06:02;;;;;;;4.18;3.67;;;;;;;;;;4245816;33;20093;-68
2022/08/03 15:08:28;;;;;;;6.28;3.67;;;;;;;;;;4244066;33;20461;-72
2022/08/03 15:10:54;;;;;;;5.20;4.12;;;;;;;;;;4247113;33;20103;-71
2022/08/03 15:13:20;;;;;;;7.57;3.85;;;;;;;;;;4247654;33;20129;-71
2022/08/03 15:15:46;;;;;;;6.00;4.32;;;;;;;;;;4246866;33;20139;-69
2022/08/03 15:18:12;;;;;;;13.65;5.37;;;;;;;;;;4243980;33;20119;-68
2022/08/03 15:20:38;;;;;;;8.82;4.22;;;;;;;;;;4243200;33;20676;-69
2022/08/03 15:23:04;;;;;;;9.30;5.20;;;;;;;;;;4241710;33;20117;-69
2022/08/03 15:25:30;;;;;;;9.15;5.07;;;;;;;;;;4238407;33;20133;-69